sensor_id;sensor_type;location;lat;lon;timestamp;P1;durP1;ratioP1;P2;durP2;ratioP2
75649;SDS011;64245;51.282;22.494;2023-02-08T00:00:46;28.58;;;11.00;;
75649;SDS011;64245;51.282;22.494;2023-02-08T00:03:23;29.50;;;11.10;;
75649;SDS011;64245;51.282;22.494;2023-02-08T00:05:49;29.88;;;10.73;;
75649;SDS011;64245;51.282;22.494;2023-02-08T00:08:15;26.05;;;10.50;;
75649;SDS011;64245;51.282;22.494;2023-02-08T00:10:41;27.95;;;12.30;;
75649;SDS011;64245;51.282;22.494;2023-02-08T00:13:07;23.02;;;10.40;;
75649;SDS011;64245;51.282;22.494;2023-02-08T00:15:33;23.98;;;10.15;;
75649;SDS011;64245;51.282;22.494;2023-02-08T00:17:59;22.27;;;10.38;;
75649;SDS011;64245;51.282;22.494;2023-02-08T00:20:24;24.70;;;9.13;;
75649;SDS011;64245;51.282;22.494;2023-02-08T00:22:50;25.70;;;10.40;;
75649;SDS011;64245;51.282;22.494;2023-02-08T00:25:16;24.00;;;9.68;;
75649;SDS011;64245;51.282;22.494;2023-02-08T00:27:41;25.20;;;10.50;;
75649;SDS011;64245;51.282;22.494;2023-02-08T00:30:07;23.15;;;11.57;;
75649;SDS011;64245;51.282;22.494;2023-02-08T00:32:33;24.50;;;10.00;;
75649;SDS011;64245;51.282;22.494;2023-02-08T00:34:59;25.38;;;9.60;;
75649;SDS011;64245;51.282;22.494;2023-02-08T00:37:24;24.38;;;10.68;;
75649;SDS011;64245;51.282;22.494;2023-02-08T00:39:50;22.30;;;9.60;;
75649;SDS011;64245;51.282;22.494;2023-02-08T00:42:15;26.02;;;9.45;;
75649;SDS011;64245;51.282;22.494;2023-02-08T00:44:41;22.17;;;9.05;;
75649;SDS011;64245;51.282;22.494;2023-02-08T00:47:06;22.13;;;9.38;;
75649;SDS011;64245;51.282;22.494;2023-02-08T00:49:32;24.70;;;9.75;;
75649;SDS011;64245;51.282;22.494;2023-02-08T00:51:58;19.00;;;7.72;;
75649;SDS011;64245;51.282;22.494;2023-02-08T00:54:23;21.83;;;9.55;;
75649;SDS011;64245;51.282;22.494;2023-02-08T00:56:49;24.00;;;9.63;;
75649;SDS011;64245;51.282;22.494;2023-02-08T00:59:15;23.50;;;9.70;;
75649;SDS011;64245;51.282;22.494;2023-02-08T01:01:40;22.55;;;8.25;;
75649;SDS011;64245;51.282;22.494;2023-02-08T01:04:06;23.70;;;9.40;;
75649;SDS011;64245;51.282;22.494;2023-02-08T01:06:32;25.73;;;9.65;;
75649;SDS011;64245;51.282;22.494;2023-02-08T01:08:58;21.77;;;9.48;;
75649;SDS011;64245;51.282;22.494;2023-02-08T01:11:24;16.42;;;7.63;;
75649;SDS011;64245;51.282;22.494;2023-02-08T01:13:51;17.75;;;7.88;;
75649;SDS011;64245;51.282;22.494;2023-02-08T01:16:25;19.95;;;7.68;;
75649;SDS011;64245;51.282;22.494;2023-02-08T01:18:54;17.42;;;6.93;;
75649;SDS011;64245;51.282;22.494;2023-02-08T01:21:22;18.77;;;7.78;;
75649;SDS011;64245;51.282;22.494;2023-02-08T01:23:50;16.88;;;7.13;;
75649;SDS011;64245;51.282;22.494;2023-02-08T01:26:16;17.55;;;7.80;;
75649;SDS011;64245;51.282;22.494;2023-02-08T01:28:42;16.85;;;8.05;;
75649;SDS011;64245;51.282;22.494;2023-02-08T01:31:09;19.10;;;7.47;;
75649;SDS011;64245;51.282;22.494;2023-02-08T01:33:37;19.63;;;8.18;;
75649;SDS011;64245;51.282;22.494;2023-02-08T01:36:03;18.90;;;7.80;;
75649;SDS011;64245;51.282;22.494;2023-02-08T01:38:30;19.98;;;7.72;;
75649;SDS011;64245;51.282;22.494;2023-02-08T01:40:55;18.83;;;7.97;;
75649;SDS011;64245;51.282;22.494;2023-02-08T01:43:25;17.75;;;7.85;;
75649;SDS011;64245;51.282;22.494;2023-02-08T01:45:53;17.38;;;8.98;;
75649;SDS011;64245;51.282;22.494;2023-02-08T01:51:03;19.05;;;7.38;;
75649;SDS011;64245;51.282;22.494;2023-02-08T01:53:34;17.15;;;7.35;;
75649;SDS011;64245;51.282;22.494;2023-02-08T01:56:01;18.30;;;6.82;;
75649;SDS011;64245;51.282;22.494;2023-02-08T01:58:32;13.57;;;5.28;;
75649;SDS011;64245;51.282;22.494;2023-02-08T02:01:00;13.25;;;6.03;;
75649;SDS011;64245;51.282;22.494;2023-02-08T02:03:27;13.45;;;6.47;;
75649;SDS011;64245;51.282;22.494;2023-02-08T02:05:54;15.70;;;7.28;;
75649;SDS011;64245;51.282;22.494;2023-02-08T02:08:30;15.15;;;6.32;;
75649;SDS011;64245;51.282;22.494;2023-02-08T02:10:56;11.82;;;6.22;;
75649;SDS011;64245;51.282;22.494;2023-02-08T02:13:23;11.48;;;5.57;;
75649;SDS011;64245;51.282;22.494;2023-02-08T02:15:50;15.90;;;6.70;;
75649;SDS011;64245;51.282;22.494;2023-02-08T02:18:19;16.23;;;5.78;;
75649;SDS011;64245;51.282;22.494;2023-02-08T02:26:19;18.10;;;7.40;;
75649;SDS011;64245;51.282;22.494;2023-02-08T02:34:44;16.73;;;6.13;;
75649;SDS011;64245;51.282;22.494;2023-02-08T02:46:26;11.50;;;5.28;;
75649;SDS011;64245;51.282;22.494;2023-02-08T02:54:33;23.05;;;10.38;;
75649;SDS011;64245;51.282;22.494;2023-02-08T02:57:05;25.02;;;11.25;;
75649;SDS011;64245;51.282;22.494;2023-02-08T02:59:34;24.60;;;10.65;;
75649;SDS011;64245;51.282;22.494;2023-02-08T03:02:02;18.00;;;7.53;;
75649;SDS011;64245;51.282;22.494;2023-02-08T03:18:40;20.90;;;8.95;;
75649;SDS011;64245;51.282;22.494;2023-02-08T03:21:19;17.17;;;7.13;;
75649;SDS011;64245;51.282;22.494;2023-02-08T03:26:54;14.65;;;7.32;;
75649;SDS011;64245;51.282;22.494;2023-02-08T03:29:52;15.18;;;6.97;;
75649;SDS011;64245;51.282;22.494;2023-02-08T03:32:23;17.02;;;6.68;;
75649;SDS011;64245;51.282;22.494;2023-02-08T03:34:55;17.77;;;7.20;;
75649;SDS011;64245;51.282;22.494;2023-02-08T03:37:32;14.30;;;6.13;;
75649;SDS011;64245;51.282;22.494;2023-02-08T03:40:21;15.40;;;5.93;;
75649;SDS011;64245;51.282;22.494;2023-02-08T03:42:51;13.93;;;6.63;;
75649;SDS011;64245;51.282;22.494;2023-02-08T03:45:21;13.38;;;6.47;;
75649;SDS011;64245;51.282;22.494;2023-02-08T03:47:52;15.52;;;7.25;;
75649;SDS011;64245;51.282;22.494;2023-02-08T03:50:21;18.70;;;7.55;;
75649;SDS011;64245;51.282;22.494;2023-02-08T03:52:48;17.75;;;7.07;;
75649;SDS011;64245;51.282;22.494;2023-02-08T03:55:17;18.15;;;7.25;;
75649;SDS011;64245;51.282;22.494;2023-02-08T03:57:57;18.80;;;7.30;;
75649;SDS011;64245;51.282;22.494;2023-02-08T04:00:29;21.02;;;7.97;;
75649;SDS011;64245;51.282;22.494;2023-02-08T04:03:03;20.45;;;7.80;;
75649;SDS011;64245;51.282;22.494;2023-02-08T04:05:34;17.10;;;6.88;;
75649;SDS011;64245;51.282;22.494;2023-02-08T04:08:01;16.05;;;6.60;;
75649;SDS011;64245;51.282;22.494;2023-02-08T04:10:26;20.60;;;7.00;;
75649;SDS011;64245;51.282;22.494;2023-02-08T04:12:52;19.00;;;7.95;;
75649;SDS011;64245;51.282;22.494;2023-02-08T04:15:18;19.10;;;8.27;;
75649;SDS011;64245;51.282;22.494;2023-02-08T04:17:43;18.58;;;7.75;;
75649;SDS011;64245;51.282;22.494;2023-02-08T04:20:09;14.35;;;7.05;;
75649;SDS011;64245;51.282;22.494;2023-02-08T04:22:35;16.55;;;7.38;;
75649;SDS011;64245;51.282;22.494;2023-02-08T04:25:01;17.60;;;7.82;;
75649;SDS011;64245;51.282;22.494;2023-02-08T04:27:26;16.05;;;6.50;;
75649;SDS011;64245;51.282;22.494;2023-02-08T04:29:52;17.40;;;7.05;;
75649;SDS011;64245;51.282;22.494;2023-02-08T04:32:17;12.20;;;6.00;;
75649;SDS011;64245;51.282;22.494;2023-02-08T04:34:43;12.85;;;6.45;;
75649;SDS011;64245;51.282;22.494;2023-02-08T04:37:09;13.55;;;6.03;;
75649;SDS011;64245;51.282;22.494;2023-02-08T04:39:35;14.38;;;6.30;;
75649;SDS011;64245;51.282;22.494;2023-02-08T04:42:00;12.75;;;5.90;;
75649;SDS011;64245;51.282;22.494;2023-02-08T04:44:26;14.70;;;6.00;;
75649;SDS011;64245;51.282;22.494;2023-02-08T04:46:52;13.60;;;5.90;;
75649;SDS011;64245;51.282;22.494;2023-02-08T04:49:18;11.18;;;5.38;;
75649;SDS011;64245;51.282;22.494;2023-02-08T04:51:43;13.07;;;5.70;;
75649;SDS011;64245;51.282;22.494;2023-02-08T04:54:09;12.25;;;6.15;;
75649;SDS011;64245;51.282;22.494;2023-02-08T04:56:35;12.93;;;5.32;;
75649;SDS011;64245;51.282;22.494;2023-02-08T04:59:02;11.95;;;5.38;;
75649;SDS011;64245;51.282;22.494;2023-02-08T05:01:27;10.35;;;5.30;;
75649;SDS011;64245;51.282;22.494;2023-02-08T05:03:53;10.20;;;4.97;;
75649;SDS011;64245;51.282;22.494;2023-02-08T05:06:19;13.10;;;5.32;;
75649;SDS011;64245;51.282;22.494;2023-02-08T05:08:45;9.82;;;4.90;;
75649;SDS011;64245;51.282;22.494;2023-02-08T05:11:10;14.80;;;5.78;;
75649;SDS011;64245;51.282;22.494;2023-02-08T05:13:36;13.75;;;5.80;;
75649;SDS011;64245;51.282;22.494;2023-02-08T05:16:01;12.65;;;6.35;;
75649;SDS011;64245;51.282;22.494;2023-02-08T05:18:27;16.05;;;5.88;;
75649;SDS011;64245;51.282;22.494;2023-02-08T05:20:54;11.77;;;5.57;;
75649;SDS011;64245;51.282;22.494;2023-02-08T05:23:24;13.95;;;6.30;;
75649;SDS011;64245;51.282;22.494;2023-02-08T05:25:50;15.45;;;6.90;;
75649;SDS011;64245;51.282;22.494;2023-02-08T05:28:16;18.10;;;7.35;;
75649;SDS011;64245;51.282;22.494;2023-02-08T05:30:41;16.60;;;6.82;;
75649;SDS011;64245;51.282;22.494;2023-02-08T05:33:07;16.73;;;6.35;;
75649;SDS011;64245;51.282;22.494;2023-02-08T05:35:32;21.02;;;8.80;;
75649;SDS011;64245;51.282;22.494;2023-02-08T05:37:58;18.67;;;7.35;;
75649;SDS011;64245;51.282;22.494;2023-02-08T05:40:24;17.77;;;8.00;;
75649;SDS011;64245;51.282;22.494;2023-02-08T05:42:50;21.27;;;8.57;;
75649;SDS011;64245;51.282;22.494;2023-02-08T05:45:15;15.40;;;5.78;;
75649;SDS011;64245;51.282;22.494;2023-02-08T05:47:41;15.38;;;6.97;;
75649;SDS011;64245;51.282;22.494;2023-02-08T05:50:07;12.63;;;6.18;;
75649;SDS011;64245;51.282;22.494;2023-02-08T05:52:33;16.27;;;6.63;;
75649;SDS011;64245;51.282;22.494;2023-02-08T05:54:58;13.23;;;6.30;;
75649;SDS011;64245;51.282;22.494;2023-02-08T05:57:24;14.75;;;6.93;;
75649;SDS011;64245;51.282;22.494;2023-02-08T05:59:50;15.02;;;5.90;;
75649;SDS011;64245;51.282;22.494;2023-02-08T06:02:15;18.08;;;7.20;;
75649;SDS011;64245;51.282;22.494;2023-02-08T06:04:41;15.55;;;6.50;;
75649;SDS011;64245;51.282;22.494;2023-02-08T06:07:07;16.67;;;6.80;;
75649;SDS011;64245;51.282;22.494;2023-02-08T06:09:32;12.43;;;6.15;;
75649;SDS011;64245;51.282;22.494;2023-02-08T06:11:58;15.98;;;6.93;;
75649;SDS011;64245;51.282;22.494;2023-02-08T06:14:23;14.52;;;6.80;;
75649;SDS011;64245;51.282;22.494;2023-02-08T06:16:49;14.13;;;6.32;;
75649;SDS011;64245;51.282;22.494;2023-02-08T06:19:15;16.75;;;6.97;;
75649;SDS011;64245;51.282;22.494;2023-02-08T06:21:40;20.25;;;7.65;;
75649;SDS011;64245;51.282;22.494;2023-02-08T06:24:06;11.98;;;5.63;;
75649;SDS011;64245;51.282;22.494;2023-02-08T06:26:32;14.50;;;6.20;;
75649;SDS011;64245;51.282;22.494;2023-02-08T06:28:58;11.48;;;5.28;;
75649;SDS011;64245;51.282;22.494;2023-02-08T06:31:25;15.43;;;5.88;;
75649;SDS011;64245;51.282;22.494;2023-02-08T06:33:50;15.10;;;5.90;;
75649;SDS011;64245;51.282;22.494;2023-02-08T06:36:16;12.23;;;4.75;;
75649;SDS011;64245;51.282;22.494;2023-02-08T06:38:42;10.55;;;4.50;;
75649;SDS011;64245;51.282;22.494;2023-02-08T06:41:07;12.77;;;6.22;;
75649;SDS011;64245;51.282;22.494;2023-02-08T06:43:33;11.88;;;5.07;;
75649;SDS011;64245;51.282;22.494;2023-02-08T06:45:59;10.95;;;5.07;;
75649;SDS011;64245;51.282;22.494;2023-02-08T06:48:24;15.10;;;7.22;;
75649;SDS011;64245;51.282;22.494;2023-02-08T06:50:51;11.65;;;4.88;;
75649;SDS011;64245;51.282;22.494;2023-02-08T06:53:17;7.65;;;3.65;;
75649;SDS011;64245;51.282;22.494;2023-02-08T06:55:47;8.88;;;3.92;;
75649;SDS011;64245;51.282;22.494;2023-02-08T06:58:13;8.25;;;4.28;;
75649;SDS011;64245;51.282;22.494;2023-02-08T07:00:39;12.52;;;4.38;;
75649;SDS011;64245;51.282;22.494;2023-02-08T07:03:05;5.60;;;3.17;;
75649;SDS011;64245;51.282;22.494;2023-02-08T07:05:33;7.03;;;3.55;;
75649;SDS011;64245;51.282;22.494;2023-02-08T07:08:01;11.63;;;5.03;;
75649;SDS011;64245;51.282;22.494;2023-02-08T07:10:28;10.50;;;4.05;;
75649;SDS011;64245;51.282;22.494;2023-02-08T07:12:53;12.55;;;4.68;;
75649;SDS011;64245;51.282;22.494;2023-02-08T07:15:19;11.10;;;5.65;;
75649;SDS011;64245;51.282;22.494;2023-02-08T07:17:44;11.27;;;4.88;;
75649;SDS011;64245;51.282;22.494;2023-02-08T07:20:10;13.50;;;5.30;;
75649;SDS011;64245;51.282;22.494;2023-02-08T07:22:37;13.45;;;5.53;;
75649;SDS011;64245;51.282;22.494;2023-02-08T07:25:03;11.00;;;5.28;;
75649;SDS011;64245;51.282;22.494;2023-02-08T07:27:29;12.30;;;4.40;;
75649;SDS011;64245;51.282;22.494;2023-02-08T07:29:55;10.60;;;4.47;;
75649;SDS011;64245;51.282;22.494;2023-02-08T07:32:21;8.98;;;4.70;;
75649;SDS011;64245;51.282;22.494;2023-02-08T07:34:46;7.20;;;3.83;;
75649;SDS011;64245;51.282;22.494;2023-02-08T07:37:12;7.72;;;3.55;;
75649;SDS011;64245;51.282;22.494;2023-02-08T07:39:38;7.60;;;3.38;;
75649;SDS011;64245;51.282;22.494;2023-02-08T07:42:03;7.80;;;4.05;;
75649;SDS011;64245;51.282;22.494;2023-02-08T07:44:31;9.70;;;3.97;;
75649;SDS011;64245;51.282;22.494;2023-02-08T07:46:56;12.85;;;5.15;;
75649;SDS011;64245;51.282;22.494;2023-02-08T07:49:22;10.32;;;4.05;;
75649;SDS011;64245;51.282;22.494;2023-02-08T07:51:48;12.45;;;4.72;;
75649;SDS011;64245;51.282;22.494;2023-02-08T07:54:14;9.88;;;4.38;;
75649;SDS011;64245;51.282;22.494;2023-02-08T07:56:39;10.45;;;4.22;;
75649;SDS011;64245;51.282;22.494;2023-02-08T07:59:05;6.72;;;4.38;;
75649;SDS011;64245;51.282;22.494;2023-02-08T08:01:31;6.55;;;3.03;;
75649;SDS011;64245;51.282;22.494;2023-02-08T08:03:56;10.52;;;4.65;;
75649;SDS011;64245;51.282;22.494;2023-02-08T08:06:22;11.82;;;4.97;;
75649;SDS011;64245;51.282;22.494;2023-02-08T08:08:48;11.02;;;4.90;;
75649;SDS011;64245;51.282;22.494;2023-02-08T08:11:15;10.88;;;5.18;;
75649;SDS011;64245;51.282;22.494;2023-02-08T08:13:42;11.63;;;5.18;;
75649;SDS011;64245;51.282;22.494;2023-02-08T08:16:07;11.02;;;5.82;;
75649;SDS011;64245;51.282;22.494;2023-02-08T08:18:33;9.95;;;5.18;;
75649;SDS011;64245;51.282;22.494;2023-02-08T08:21:00;11.30;;;5.22;;
75649;SDS011;64245;51.282;22.494;2023-02-08T08:23:26;12.68;;;6.28;;
75649;SDS011;64245;51.282;22.494;2023-02-08T08:25:53;11.10;;;5.40;;
75649;SDS011;64245;51.282;22.494;2023-02-08T08:28:19;12.68;;;5.57;;
75649;SDS011;64245;51.282;22.494;2023-02-08T08:30:45;5.28;;;2.90;;
75649;SDS011;64245;51.282;22.494;2023-02-08T08:33:11;7.00;;;3.42;;
75649;SDS011;64245;51.282;22.494;2023-02-08T08:35:40;6.75;;;3.97;;
75649;SDS011;64245;51.282;22.494;2023-02-08T08:38:08;8.90;;;4.22;;
75649;SDS011;64245;51.282;22.494;2023-02-08T08:40:34;8.68;;;4.15;;
75649;SDS011;64245;51.282;22.494;2023-02-08T08:42:59;8.35;;;5.07;;
75649;SDS011;64245;51.282;22.494;2023-02-08T08:45:25;8.43;;;3.75;;
75649;SDS011;64245;51.282;22.494;2023-02-08T08:47:51;7.22;;;3.97;;
75649;SDS011;64245;51.282;22.494;2023-02-08T08:50:17;7.22;;;3.72;;
75649;SDS011;64245;51.282;22.494;2023-02-08T08:52:43;10.45;;;4.60;;
75649;SDS011;64245;51.282;22.494;2023-02-08T08:55:08;13.23;;;4.18;;
75649;SDS011;64245;51.282;22.494;2023-02-08T08:57:34;9.40;;;3.75;;
75649;SDS011;64245;51.282;22.494;2023-02-08T08:59:59;9.30;;;4.53;;
75649;SDS011;64245;51.282;22.494;2023-02-08T09:02:25;7.07;;;4.05;;
75649;SDS011;64245;51.282;22.494;2023-02-08T09:04:51;10.52;;;3.78;;
75649;SDS011;64245;51.282;22.494;2023-02-08T09:07:17;7.07;;;4.00;;
75649;SDS011;64245;51.282;22.494;2023-02-08T09:09:42;9.25;;;4.32;;
75649;SDS011;64245;51.282;22.494;2023-02-08T09:12:13;7.32;;;4.15;;
75649;SDS011;64245;51.282;22.494;2023-02-08T09:14:40;9.27;;;4.35;;
75649;SDS011;64245;51.282;22.494;2023-02-08T09:17:06;12.43;;;4.57;;
75649;SDS011;64245;51.282;22.494;2023-02-08T09:19:32;9.02;;;5.13;;
75649;SDS011;64245;51.282;22.494;2023-02-08T09:21:58;9.80;;;5.10;;
75649;SDS011;64245;51.282;22.494;2023-02-08T09:24:24;12.80;;;6.40;;
75649;SDS011;64245;51.282;22.494;2023-02-08T09:26:51;15.00;;;6.50;;
75649;SDS011;64245;51.282;22.494;2023-02-08T09:29:17;12.52;;;5.15;;
75649;SDS011;64245;51.282;22.494;2023-02-08T09:31:42;12.27;;;5.25;;
75649;SDS011;64245;51.282;22.494;2023-02-08T09:34:08;13.05;;;5.07;;
75649;SDS011;64245;51.282;22.494;2023-02-08T09:36:35;12.10;;;6.07;;
75649;SDS011;64245;51.282;22.494;2023-02-08T09:39:14;13.63;;;6.18;;
75649;SDS011;64245;51.282;22.494;2023-02-08T09:47:27;13.10;;;5.68;;
75649;SDS011;64245;51.282;22.494;2023-02-08T09:49:58;10.52;;;5.43;;
75649;SDS011;64245;51.282;22.494;2023-02-08T09:52:34;10.27;;;5.25;;
75649;SDS011;64245;51.282;22.494;2023-02-08T09:57:54;10.02;;;5.25;;
75649;SDS011;64245;51.282;22.494;2023-02-08T10:00:26;9.15;;;4.35;;
75649;SDS011;64245;51.282;22.494;2023-02-08T10:03:05;12.20;;;5.38;;
75649;SDS011;64245;51.282;22.494;2023-02-08T10:05:43;13.75;;;5.15;;
75649;SDS011;64245;51.282;22.494;2023-02-08T10:08:08;8.75;;;5.10;;
75649;SDS011;64245;51.282;22.494;2023-02-08T10:10:54;12.25;;;5.20;;
75649;SDS011;64245;51.282;22.494;2023-02-08T10:30:44;8.77;;;3.80;;
75649;SDS011;64245;51.282;22.494;2023-02-08T10:33:25;8.98;;;4.72;;
75649;SDS011;64245;51.282;22.494;2023-02-08T10:36:16;7.75;;;4.25;;
75649;SDS011;64245;51.282;22.494;2023-02-08T10:38:48;8.43;;;4.45;;
75649;SDS011;64245;51.282;22.494;2023-02-08T10:41:24;8.60;;;4.28;;
75649;SDS011;64245;51.282;22.494;2023-02-08T10:46:34;7.68;;;4.30;;
75649;SDS011;64245;51.282;22.494;2023-02-08T10:52:05;10.57;;;5.03;;
75649;SDS011;64245;51.282;22.494;2023-02-08T10:54:36;11.10;;;5.63;;
75649;SDS011;64245;51.282;22.494;2023-02-08T10:57:04;9.82;;;5.28;;
75649;SDS011;64245;51.282;22.494;2023-02-08T10:59:52;10.48;;;5.82;;
75649;SDS011;64245;51.282;22.494;2023-02-08T11:02:34;9.57;;;5.05;;
75649;SDS011;64245;51.282;22.494;2023-02-08T11:05:14;10.50;;;4.88;;
75649;SDS011;64245;51.282;22.494;2023-02-08T11:07:45;7.82;;;4.00;;
75649;SDS011;64245;51.282;22.494;2023-02-08T11:12:53;8.50;;;4.43;;
75649;SDS011;64245;51.282;22.494;2023-02-08T11:15:22;6.55;;;4.20;;
75649;SDS011;64245;51.282;22.494;2023-02-08T11:17:59;6.22;;;4.00;;
75649;SDS011;64245;51.282;22.494;2023-02-08T11:20:28;7.80;;;4.55;;
75649;SDS011;64245;51.282;22.494;2023-02-08T11:23:03;9.55;;;5.40;;
75649;SDS011;64245;51.282;22.494;2023-02-08T11:25:42;7.20;;;4.32;;
75649;SDS011;64245;51.282;22.494;2023-02-08T11:28:20;9.48;;;4.85;;
75649;SDS011;64245;51.282;22.494;2023-02-08T11:31:01;8.55;;;4.93;;
75649;SDS011;64245;51.282;22.494;2023-02-08T11:36:45;8.20;;;4.75;;
75649;SDS011;64245;51.282;22.494;2023-02-08T11:42:05;9.85;;;5.15;;
75649;SDS011;64245;51.282;22.494;2023-02-08T11:44:40;8.98;;;4.75;;
75649;SDS011;64245;51.282;22.494;2023-02-08T11:47:11;9.80;;;5.47;;
75649;SDS011;64245;51.282;22.494;2023-02-08T11:49:56;7.57;;;5.10;;
75649;SDS011;64245;51.282;22.494;2023-02-08T11:52:25;8.95;;;5.43;;
75649;SDS011;64245;51.282;22.494;2023-02-08T11:54:54;9.45;;;6.05;;
75649;SDS011;64245;51.282;22.494;2023-02-08T11:57:35;8.82;;;5.55;;
75649;SDS011;64245;51.282;22.494;2023-02-08T12:00:21;11.45;;;7.10;;
75649;SDS011;64245;51.282;22.494;2023-02-08T12:02:49;13.50;;;7.25;;
75649;SDS011;64245;51.282;22.494;2023-02-08T12:05:17;9.68;;;5.72;;
75649;SDS011;64245;51.282;22.494;2023-02-08T12:10:45;10.77;;;6.15;;
75649;SDS011;64245;51.282;22.494;2023-02-08T12:27:36;17.02;;;8.43;;
75649;SDS011;64245;51.282;22.494;2023-02-08T12:30:15;15.65;;;7.05;;
75649;SDS011;64245;51.282;22.494;2023-02-08T12:32:59;14.73;;;7.93;;
75649;SDS011;64245;51.282;22.494;2023-02-08T12:35:48;11.23;;;6.18;;
75649;SDS011;64245;51.282;22.494;2023-02-08T12:41:30;15.82;;;6.65;;
75649;SDS011;64245;51.282;22.494;2023-02-08T12:44:05;14.32;;;6.88;;
75649;SDS011;64245;51.282;22.494;2023-02-08T12:49:47;15.48;;;7.95;;
75649;SDS011;64245;51.282;22.494;2023-02-08T12:55:16;12.68;;;5.95;;
75649;SDS011;64245;51.282;22.494;2023-02-08T12:57:56;16.02;;;7.75;;
75649;SDS011;64245;51.282;22.494;2023-02-08T13:05:59;15.90;;;7.65;;
75649;SDS011;64245;51.282;22.494;2023-02-08T13:08:31;15.27;;;8.07;;
75649;SDS011;64245;51.282;22.494;2023-02-08T13:13:35;15.95;;;6.63;;
75649;SDS011;64245;51.282;22.494;2023-02-08T13:18:54;15.27;;;7.38;;
75649;SDS011;64245;51.282;22.494;2023-02-08T13:21:31;12.80;;;6.50;;
75649;SDS011;64245;51.282;22.494;2023-02-08T13:24:14;14.32;;;7.47;;
75649;SDS011;64245;51.282;22.494;2023-02-08T13:26:55;12.60;;;7.30;;
75649;SDS011;64245;51.282;22.494;2023-02-08T13:29:21;14.50;;;6.03;;
75649;SDS011;64245;51.282;22.494;2023-02-08T13:37:21;12.63;;;6.20;;
75649;SDS011;64245;51.282;22.494;2023-02-08T13:39:48;9.43;;;3.95;;
75649;SDS011;64245;51.282;22.494;2023-02-08T13:42:26;10.82;;;5.82;;
75649;SDS011;64245;51.282;22.494;2023-02-08T13:44:58;10.95;;;5.95;;
75649;SDS011;64245;51.282;22.494;2023-02-08T13:47:29;10.13;;;5.68;;
75649;SDS011;64245;51.282;22.494;2023-02-08T13:49:59;11.18;;;6.28;;
75649;SDS011;64245;51.282;22.494;2023-02-08T13:57:57;14.85;;;7.15;;
75649;SDS011;64245;51.282;22.494;2023-02-08T14:00:28;17.67;;;6.97;;
75649;SDS011;64245;51.282;22.494;2023-02-08T14:05:42;13.07;;;6.28;;
75649;SDS011;64245;51.282;22.494;2023-02-08T14:08:20;12.63;;;6.13;;
75649;SDS011;64245;51.282;22.494;2023-02-08T14:16:32;15.57;;;6.20;;
75649;SDS011;64245;51.282;22.494;2023-02-08T14:22:23;13.45;;;6.50;;
75649;SDS011;64245;51.282;22.494;2023-02-08T14:24:40;15.07;;;5.78;;
75649;SDS011;64245;51.282;22.494;2023-02-08T14:30:00;13.35;;;6.43;;
75649;SDS011;64245;51.282;22.494;2023-02-08T14:32:31;13.30;;;5.63;;
75649;SDS011;64245;51.282;22.494;2023-02-08T14:37:37;14.77;;;5.97;;
75649;SDS011;64245;51.282;22.494;2023-02-08T14:42:58;11.65;;;5.82;;
75649;SDS011;64245;51.282;22.494;2023-02-08T14:47:57;13.07;;;6.20;;
75649;SDS011;64245;51.282;22.494;2023-02-08T14:50:32;20.17;;;8.93;;
75649;SDS011;64245;51.282;22.494;2023-02-08T14:53:05;16.98;;;7.75;;
75649;SDS011;64245;51.282;22.494;2023-02-08T14:55:39;17.33;;;8.07;;
75649;SDS011;64245;51.282;22.494;2023-02-08T14:58:11;18.27;;;8.48;;
75649;SDS011;64245;51.282;22.494;2023-02-08T15:00:45;18.50;;;8.30;;
75649;SDS011;64245;51.282;22.494;2023-02-08T15:03:16;19.40;;;8.80;;
75649;SDS011;64245;51.282;22.494;2023-02-08T15:05:46;20.30;;;9.70;;
75649;SDS011;64245;51.282;22.494;2023-02-08T15:08:23;21.35;;;8.75;;
75649;SDS011;64245;51.282;22.494;2023-02-08T15:10:49;17.55;;;8.00;;
75649;SDS011;64245;51.282;22.494;2023-02-08T15:13:21;18.88;;;8.32;;
75649;SDS011;64245;51.282;22.494;2023-02-08T15:15:50;18.40;;;8.40;;
75649;SDS011;64245;51.282;22.494;2023-02-08T15:18:27;20.92;;;7.72;;
75649;SDS011;64245;51.282;22.494;2023-02-08T15:21:05;19.42;;;8.40;;
75649;SDS011;64245;51.282;22.494;2023-02-08T15:23:39;18.23;;;8.10;;
75649;SDS011;64245;51.282;22.494;2023-02-08T15:26:16;17.65;;;8.43;;
75649;SDS011;64245;51.282;22.494;2023-02-08T15:28:46;18.45;;;8.55;;
75649;SDS011;64245;51.282;22.494;2023-02-08T15:31:13;18.13;;;8.05;;
75649;SDS011;64245;51.282;22.494;2023-02-08T15:33:41;24.17;;;8.95;;
75649;SDS011;64245;51.282;22.494;2023-02-08T15:36:20;21.50;;;8.77;;
75649;SDS011;64245;51.282;22.494;2023-02-08T15:38:50;29.17;;;11.43;;
75649;SDS011;64245;51.282;22.494;2023-02-08T15:41:30;24.75;;;9.85;;
75649;SDS011;64245;51.282;22.494;2023-02-08T15:44:12;21.30;;;9.25;;
75649;SDS011;64245;51.282;22.494;2023-02-08T15:46:42;19.83;;;9.90;;
75649;SDS011;64245;51.282;22.494;2023-02-08T15:49:13;24.52;;;10.95;;
75649;SDS011;64245;51.282;22.494;2023-02-08T15:51:45;26.90;;;10.80;;
75649;SDS011;64245;51.282;22.494;2023-02-08T15:54:15;28.90;;;12.98;;
75649;SDS011;64245;51.282;22.494;2023-02-08T15:56:47;27.20;;;12.70;;
75649;SDS011;64245;51.282;22.494;2023-02-08T15:59:21;34.35;;;12.55;;
75649;SDS011;64245;51.282;22.494;2023-02-08T16:01:52;34.75;;;13.65;;
75649;SDS011;64245;51.282;22.494;2023-02-08T16:04:19;35.45;;;14.43;;
75649;SDS011;64245;51.282;22.494;2023-02-08T16:06:53;37.70;;;15.38;;
75649;SDS011;64245;51.282;22.494;2023-02-08T16:09:23;37.92;;;15.70;;
75649;SDS011;64245;51.282;22.494;2023-02-08T16:11:54;40.53;;;17.48;;
75649;SDS011;64245;51.282;22.494;2023-02-08T16:14:22;35.83;;;16.33;;
75649;SDS011;64245;51.282;22.494;2023-02-08T16:16:51;47.38;;;17.70;;
75649;SDS011;64245;51.282;22.494;2023-02-08T16:21:55;36.33;;;15.20;;
75649;SDS011;64245;51.282;22.494;2023-02-08T16:24:41;48.08;;;16.45;;
75649;SDS011;64245;51.282;22.494;2023-02-08T16:27:19;47.85;;;17.42;;
75649;SDS011;64245;51.282;22.494;2023-02-08T16:29:50;41.75;;;16.15;;
75649;SDS011;64245;51.282;22.494;2023-02-08T16:32:32;44.03;;;18.20;;
75649;SDS011;64245;51.282;22.494;2023-02-08T16:35:13;37.58;;;15.18;;
75649;SDS011;64245;51.282;22.494;2023-02-08T16:37:51;38.88;;;15.43;;
75649;SDS011;64245;51.282;22.494;2023-02-08T16:40:42;36.17;;;14.27;;
75649;SDS011;64245;51.282;22.494;2023-02-08T16:43:26;42.17;;;15.40;;
75649;SDS011;64245;51.282;22.494;2023-02-08T16:48:41;40.22;;;17.05;;
75649;SDS011;64245;51.282;22.494;2023-02-08T16:51:11;39.63;;;14.88;;
75649;SDS011;64245;51.282;22.494;2023-02-08T16:53:41;45.28;;;16.70;;
75649;SDS011;64245;51.282;22.494;2023-02-08T16:56:08;43.65;;;16.15;;
75649;SDS011;64245;51.282;22.494;2023-02-08T16:58:35;41.22;;;16.25;;
75649;SDS011;64245;51.282;22.494;2023-02-08T17:01:01;40.70;;;15.73;;
75649;SDS011;64245;51.282;22.494;2023-02-08T17:03:27;35.47;;;15.80;;
75649;SDS011;64245;51.282;22.494;2023-02-08T17:05:53;43.58;;;16.70;;
75649;SDS011;64245;51.282;22.494;2023-02-08T17:08:19;42.17;;;16.42;;
75649;SDS011;64245;51.282;22.494;2023-02-08T17:10:46;44.25;;;14.95;;
75649;SDS011;64245;51.282;22.494;2023-02-08T17:13:16;58.08;;;23.40;;
75649;SDS011;64245;51.282;22.494;2023-02-08T17:15:43;71.53;;;27.35;;